createdAt,value
2019-04-16T00:00:47.730Z,9.50
2019-04-16T00:01:53.241Z,9.08
2019-04-16T00:02:51.389Z,9.55
2019-04-16T00:03:39.494Z,9.35
2019-04-16T00:04:53.725Z,9.48
2019-04-16T00:05:42.085Z,9.85
2019-04-16T00:07:06.207Z,9.38
2019-04-16T00:08:19.383Z,9.25
2019-04-16T00:08:59.391Z,10.20
2019-04-16T00:10:02.464Z,9.55
2019-04-16T00:10:52.370Z,9.35
2019-04-16T00:11:56.587Z,9.13
2019-04-16T00:13:02.501Z,10.18
2019-04-16T00:14:11.537Z,9.35
2019-04-16T00:14:58.099Z,10.08
2019-04-16T00:15:44.606Z,10.40
2019-04-16T00:16:30.819Z,9.23
2019-04-16T00:17:16.869Z,9.23
2019-04-16T00:18:02.827Z,9.55
2019-04-16T00:18:57.211Z,9.88
2019-04-16T00:19:37.187Z,9.90
2019-04-16T00:20:23.116Z,9.10
2019-04-16T00:21:41.117Z,9.78
2019-04-16T00:22:32.632Z,10.20
2019-04-16T00:23:28.531Z,10.13
2019-04-16T00:24:25.194Z,9.00
2019-04-16T00:25:11.347Z,9.70
2019-04-16T00:25:57.242Z,10.03
2019-04-16T00:26:43.308Z,9.20
2019-04-16T00:27:29.582Z,9.58
2019-04-16T00:28:16.569Z,10.20
2019-04-16T00:29:03.223Z,10.25
2019-04-16T00:29:49.823Z,11.28
2019-04-16T00:30:37.074Z,9.85
2019-04-16T00:31:23.415Z,9.75
2019-04-16T00:32:25.920Z,10.20
2019-04-16T00:33:12.207Z,9.80
2019-04-16T00:33:58.618Z,10.55
2019-04-16T00:34:45.386Z,9.20
2019-04-16T00:35:32.075Z,10.60
2019-04-16T00:36:19.180Z,10.58
2019-04-16T00:37:05.763Z,11.03
2019-04-16T00:37:52.399Z,10.38
2019-04-16T00:38:41.049Z,10.72
2019-04-16T00:39:27.426Z,10.40
2019-04-16T00:40:14.961Z,10.18
2019-04-16T00:41:02.018Z,11.18
2019-04-16T00:41:48.871Z,10.25
2019-04-16T00:42:34.935Z,10.45
2019-04-16T00:43:21.520Z,10.03
2019-04-16T00:44:08.918Z,10.88
2019-04-16T00:44:55.545Z,10.60
2019-04-16T00:45:42.231Z,10.63
2019-04-16T00:46:29.339Z,10.85
2019-04-16T00:47:16.011Z,10.58
2019-04-16T00:48:02.415Z,10.55
2019-04-16T00:48:48.406Z,10.03
2019-04-16T00:49:37.675Z,10.38
2019-04-16T00:50:22.791Z,10.65
2019-04-16T00:51:08.983Z,10.50
2019-04-16T00:51:55.436Z,10.45
2019-04-16T00:52:41.492Z,10.70
2019-04-16T00:53:27.676Z,9.93
2019-04-16T00:54:13.879Z,11.30
2019-04-16T00:54:59.833Z,10.88
2019-04-16T00:55:46.180Z,11.12
2019-04-16T00:56:32.534Z,10.95
2019-04-16T00:57:19.102Z,11.75
2019-04-16T00:58:05.455Z,9.98
2019-04-16T00:58:52.036Z,11.50
2019-04-16T00:59:40.223Z,10.40
2019-04-16T01:00:27.753Z,10.40
2019-04-16T01:01:14.145Z,10.85
2019-04-16T01:02:00.348Z,11.18
2019-04-16T01:02:47.051Z,10.45
2019-04-16T01:03:34.508Z,11.33
2019-04-16T01:04:20.804Z,10.20
2019-04-16T01:05:06.862Z,10.30
2019-04-16T01:05:53.059Z,10.60
2019-04-16T01:06:40.637Z,10.55
2019-04-16T01:07:27.667Z,11.18
2019-04-16T01:08:13.813Z,11.57
2019-04-16T01:09:00.200Z,10.82
2019-04-16T01:09:46.693Z,10.55
2019-04-16T01:10:33.183Z,10.88
2019-04-16T01:11:19.220Z,10.80
2019-04-16T01:12:05.425Z,10.98
2019-04-16T01:12:51.306Z,12.43
2019-04-16T01:13:38.245Z,11.68
2019-04-16T01:14:26.763Z,11.40
2019-04-16T01:15:12.473Z,11.30
2019-04-16T01:16:02.514Z,11.15
2019-04-16T01:16:47.086Z,10.85
2019-04-16T01:17:35.955Z,11.08
2019-04-16T01:18:21.424Z,11.40
2019-04-16T01:19:09.998Z,10.70
2019-04-16T01:19:55.858Z,11.65
2019-04-16T01:20:43.269Z,11.33
2019-04-16T01:21:29.852Z,11.50
2019-04-16T01:22:16.720Z,11.88
2019-04-16T01:23:03.136Z,11.05
2019-04-16T01:23:49.650Z,11.75
2019-04-16T01:24:37.090Z,12.23
2019-04-16T01:25:24.049Z,11.48
2019-04-16T01:26:10.301Z,10.48
2019-04-16T01:26:58.275Z,11.75
2019-04-16T01:27:47.762Z,11.05
2019-04-16T01:28:36.216Z,12.23
2019-04-16T01:29:22.577Z,11.18
2019-04-16T01:30:11.017Z,11.63
2019-04-16T01:31:12.739Z,11.40
2019-04-16T01:32:36.024Z,11.43
2019-04-16T01:33:29.535Z,10.88
2019-04-16T01:34:34.012Z,11.55
2019-04-16T01:35:37.682Z,11.40
2019-04-16T01:36:45.009Z,10.95
2019-04-16T01:37:59.595Z,10.50
2019-04-16T01:39:10.856Z,11.60
2019-04-16T01:39:47.417Z,10.88
2019-04-16T01:40:39.931Z,11.08
2019-04-16T01:41:25.957Z,11.20
2019-04-16T01:42:12.596Z,11.00
2019-04-16T01:42:58.708Z,11.80
2019-04-16T01:43:44.828Z,11.45
2019-04-16T01:44:30.863Z,10.95
2019-04-16T01:45:16.852Z,11.60
2019-04-16T01:46:03.494Z,11.28
2019-04-16T01:46:49.597Z,11.18
2019-04-16T01:47:37.121Z,12.25
2019-04-16T01:48:23.255Z,11.53
2019-04-16T01:49:10.291Z,11.03
2019-04-16T01:49:57.384Z,11.85
2019-04-16T01:50:44.446Z,12.10
2019-04-16T01:51:30.787Z,12.20
2019-04-16T01:52:18.957Z,11.70
2019-04-16T01:53:04.667Z,12.03
2019-04-16T01:53:52.388Z,11.40
2019-04-16T01:54:38.692Z,12.18
2019-04-16T01:55:25.765Z,11.68
2019-04-16T01:56:12.545Z,12.18
2019-04-16T01:57:00.003Z,11.30
2019-04-16T01:57:46.248Z,11.60
2019-04-16T01:58:33.827Z,12.45
2019-04-16T01:59:20.643Z,11.43
2019-04-16T02:00:08.790Z,11.35
2019-04-16T02:00:55.313Z,11.85
2019-04-16T02:01:43.477Z,11.60
2019-04-16T02:02:29.802Z,12.55
2019-04-16T02:03:17.741Z,10.53
2019-04-16T02:04:04.576Z,11.90
2019-04-16T02:04:51.897Z,11.75
2019-04-16T02:05:38.824Z,10.88
2019-04-16T02:06:26.053Z,12.05
2019-04-16T02:07:13.088Z,11.28
2019-04-16T02:08:00.413Z,12.25
2019-04-16T02:08:46.733Z,11.63
2019-04-16T02:09:34.695Z,11.22
2019-04-16T02:10:21.328Z,12.47
2019-04-16T02:11:10.620Z,12.47
2019-04-16T02:11:55.939Z,11.85
2019-04-16T02:12:43.886Z,11.93
2019-04-16T02:13:30.005Z,12.30
2019-04-16T02:14:21.943Z,12.15
2019-04-16T02:15:06.817Z,11.20
2019-04-16T02:15:53.399Z,11.78
2019-04-16T02:16:40.415Z,11.78
2019-04-16T02:17:27.059Z,11.60
2019-04-16T02:18:13.803Z,12.25
2019-04-16T02:19:01.264Z,12.07
2019-04-16T02:19:47.967Z,11.48
2019-04-16T02:20:38.430Z,11.88
2019-04-16T02:21:23.708Z,12.37
2019-04-16T02:22:12.593Z,12.13
2019-04-16T02:22:57.544Z,11.65
2019-04-16T02:23:45.388Z,12.07
2019-04-16T02:24:32.324Z,11.63
2019-04-16T02:25:20.313Z,11.60
2019-04-16T02:26:06.344Z,11.08
2019-04-16T02:26:54.709Z,11.60
2019-04-16T02:27:40.138Z,11.97
2019-04-16T02:28:28.300Z,12.47
2019-04-16T02:29:14.029Z,12.60
2019-04-16T02:30:02.712Z,12.20
2019-04-16T02:30:49.021Z,12.65
2019-04-16T02:31:35.153Z,11.88
2019-04-16T02:32:21.319Z,11.95
2019-04-16T02:33:07.694Z,10.98
2019-04-16T02:34:01.013Z,12.00
2019-04-16T02:34:47.442Z,12.07
2019-04-16T02:35:33.471Z,10.95
2019-04-16T02:36:19.463Z,12.20
2019-04-16T02:37:05.755Z,12.00
2019-04-16T02:37:51.686Z,11.70
2019-04-16T02:38:37.613Z,11.78
2019-04-16T02:39:46.249Z,11.85
2019-04-16T02:40:16.617Z,11.45
2019-04-16T02:41:00.573Z,11.93
2019-04-16T02:41:46.676Z,11.38
2019-04-16T02:42:32.767Z,11.08
2019-04-16T02:43:18.904Z,11.70
2019-04-16T02:44:04.899Z,11.85
2019-04-16T02:44:51.093Z,11.45
2019-04-16T02:45:37.026Z,11.30
2019-04-16T02:46:23.352Z,11.90
2019-04-16T02:47:10.379Z,12.30
2019-04-16T02:47:56.660Z,12.00
2019-04-16T02:48:50.200Z,12.37
2019-04-16T02:49:31.766Z,12.18
2019-04-16T02:50:30.489Z,11.83
2019-04-16T02:51:39.620Z,12.53
2019-04-16T02:52:36.416Z,12.58
2019-04-16T02:53:40.469Z,11.93
2019-04-16T02:54:52.059Z,11.90
2019-04-16T02:55:48.068Z,11.18
2019-04-16T02:56:53.096Z,11.10
2019-04-16T02:57:59.996Z,11.88
2019-04-16T02:58:52.461Z,11.05
2019-04-16T02:59:45.735Z,12.28
2019-04-16T03:00:54.065Z,11.08
2019-04-16T03:01:54.492Z,11.40
2019-04-16T03:02:45.926Z,11.55
2019-04-16T03:03:37.426Z,11.15
2019-04-16T03:04:27.073Z,11.48
2019-04-16T03:05:29.036Z,11.83
2019-04-16T03:06:15.175Z,12.20
2019-04-16T03:07:03.286Z,11.85
2019-04-16T03:07:50.372Z,12.00
2019-04-16T03:08:36.931Z,12.07
2019-04-16T03:09:23.205Z,12.20
2019-04-16T03:10:12.019Z,11.75
2019-04-16T03:10:57.027Z,12.80
2019-04-16T03:11:45.551Z,12.55
2019-04-16T03:12:30.691Z,12.18
2019-04-16T03:13:17.034Z,12.05
2019-04-16T03:14:02.857Z,11.60
2019-04-16T03:14:48.862Z,12.23
2019-04-16T03:15:53.767Z,12.40
2019-04-16T03:17:02.520Z,12.90
2019-04-16T03:17:48.971Z,12.03
2019-04-16T03:18:39.567Z,12.40
2019-04-16T03:19:30.054Z,11.90
2019-04-16T03:20:16.768Z,12.03
2019-04-16T03:21:02.776Z,12.82
2019-04-16T03:21:49.194Z,12.93
2019-04-16T03:22:35.682Z,12.73
2019-04-16T03:23:23.306Z,12.68
2019-04-16T03:24:10.095Z,12.50
2019-04-16T03:24:56.330Z,12.95
2019-04-16T03:25:44.422Z,11.93
2019-04-16T03:26:30.106Z,12.40
2019-04-16T03:27:16.443Z,11.97
2019-04-16T03:28:02.628Z,12.33
2019-04-16T03:28:48.841Z,12.37
2019-04-16T03:29:35.295Z,12.53
2019-04-16T03:30:21.248Z,13.03
2019-04-16T03:31:09.536Z,13.00
2019-04-16T03:31:58.193Z,11.97
2019-04-16T03:32:50.423Z,12.53
2019-04-16T03:33:36.695Z,12.90
2019-04-16T03:34:23.036Z,12.47
2019-04-16T03:35:08.909Z,12.45
2019-04-16T03:35:57.636Z,12.60
2019-04-16T03:36:44.447Z,12.98
2019-04-16T03:37:33.078Z,13.38
2019-04-16T03:38:18.704Z,13.15
2019-04-16T03:39:06.133Z,12.82
2019-04-16T03:39:52.095Z,12.13
2019-04-16T03:40:38.052Z,12.40
2019-04-16T03:41:25.714Z,12.80
2019-04-16T03:42:12.299Z,12.37
2019-04-16T03:43:02.467Z,12.85
2019-04-16T03:43:47.849Z,13.18
2019-04-16T03:44:37.258Z,12.93
2019-04-16T03:45:22.517Z,13.43
2019-04-16T03:46:12.356Z,12.73
2019-04-16T03:46:58.607Z,12.75
2019-04-16T03:47:50.931Z,12.93
2019-04-16T03:48:34.597Z,12.95
2019-04-16T03:49:20.567Z,13.35
2019-04-16T03:50:06.970Z,12.30
2019-04-16T03:50:53.294Z,13.32
2019-04-16T03:51:39.871Z,13.35
2019-04-16T03:52:26.109Z,13.18
2019-04-16T03:53:16.651Z,13.80
2019-04-16T03:54:00.531Z,13.03
2019-04-16T03:54:46.475Z,14.53
2019-04-16T03:55:32.525Z,13.32
2019-04-16T03:56:18.638Z,14.28
2019-04-16T03:57:04.904Z,13.18
2019-04-16T03:57:51.173Z,13.35
2019-04-16T03:58:38.522Z,12.37
2019-04-16T03:59:25.697Z,12.98
2019-04-16T04:00:13.011Z,13.32
2019-04-16T04:00:59.699Z,12.93
2019-04-16T04:01:46.714Z,13.20
2019-04-16T04:02:33.322Z,13.72
2019-04-16T04:03:19.608Z,12.55
2019-04-16T04:04:06.142Z,13.03
2019-04-16T04:04:52.132Z,14.25
2019-04-16T04:05:38.373Z,13.15
2019-04-16T04:06:36.504Z,13.15
2019-04-16T04:07:24.402Z,12.58
2019-04-16T04:08:10.483Z,13.43
2019-04-16T04:08:56.351Z,12.95
2019-04-16T04:09:42.308Z,13.18
2019-04-16T04:10:30.782Z,13.32
2019-04-16T04:11:16.225Z,12.80
2019-04-16T04:12:03.657Z,12.68
2019-04-16T04:12:50.141Z,12.03
2019-04-16T04:13:36.416Z,13.15
2019-04-16T04:14:23.532Z,12.98
2019-04-16T04:15:09.907Z,14.05
2019-04-16T04:15:58.540Z,13.98
2019-04-16T04:16:45.179Z,13.38
2019-04-16T04:17:32.146Z,13.80
2019-04-16T04:18:18.400Z,13.55
2019-04-16T04:19:04.819Z,13.43
2019-04-16T04:19:51.229Z,13.85
2019-04-16T04:20:37.438Z,13.53
2019-04-16T04:21:24.087Z,13.90
2019-04-16T04:22:10.315Z,13.72
2019-04-16T04:22:57.207Z,13.45
2019-04-16T04:23:44.285Z,13.95
2019-04-16T04:24:31.379Z,13.48
2019-04-16T04:25:18.137Z,14.45
2019-04-16T04:26:05.510Z,13.40
2019-04-16T04:26:52.040Z,13.50
2019-04-16T04:27:38.663Z,13.53
2019-04-16T04:28:24.925Z,14.78
2019-04-16T04:29:10.945Z,13.08
2019-04-16T04:29:57.381Z,14.75
2019-04-16T04:30:43.897Z,14.28
2019-04-16T04:31:32.448Z,12.90
2019-04-16T04:32:17.996Z,13.13
2019-04-16T04:33:07.416Z,13.98
2019-04-16T04:33:51.896Z,13.03
2019-04-16T04:34:39.680Z,13.25
2019-04-16T04:35:26.155Z,13.88
2019-04-16T04:36:12.240Z,14.25
2019-04-16T04:36:59.696Z,14.38
2019-04-16T04:37:46.189Z,14.03
2019-04-16T04:38:33.688Z,14.03
2019-04-16T04:39:20.707Z,14.03
2019-04-16T04:40:06.687Z,14.45
2019-04-16T04:40:54.384Z,14.28
2019-04-16T04:41:40.968Z,14.13
2019-04-16T04:42:28.414Z,13.90
2019-04-16T04:43:15.431Z,14.23
2019-04-16T04:44:04.554Z,12.53
2019-04-16T04:44:50.440Z,13.48
2019-04-16T04:45:37.738Z,14.25
2019-04-16T04:46:24.391Z,14.25
2019-04-16T04:47:11.245Z,13.98
2019-04-16T04:47:58.839Z,14.03
2019-04-16T04:48:45.257Z,13.83
2019-04-16T04:49:32.820Z,14.55
2019-04-16T04:50:20.100Z,13.22
2019-04-16T04:51:08.156Z,14.33
2019-04-16T04:51:55.304Z,13.70
2019-04-16T04:52:43.234Z,13.48
2019-04-16T04:53:29.552Z,13.58
2019-04-16T04:54:15.868Z,14.58
2019-04-16T04:55:04.221Z,13.98
2019-04-16T04:55:50.606Z,13.55
2019-04-16T04:56:36.795Z,14.00
2019-04-16T04:57:23.303Z,13.38
2019-04-16T04:58:09.742Z,13.30
2019-04-16T04:58:55.675Z,13.93
2019-04-16T04:59:41.667Z,14.10
2019-04-16T05:00:27.666Z,13.90
2019-04-16T05:01:14.381Z,13.98
2019-04-16T05:02:01.043Z,13.35
2019-04-16T05:02:47.728Z,14.33
2019-04-16T05:03:47.395Z,14.05
2019-04-16T05:04:55.714Z,14.73
2019-04-16T05:05:53.362Z,14.43
2019-04-16T05:06:39.666Z,14.13
2019-04-16T05:07:29.064Z,14.35
2019-04-16T05:08:13.980Z,13.88
2019-04-16T05:09:00.409Z,14.05
2019-04-16T05:09:48.896Z,13.88
2019-04-16T05:10:39.887Z,14.07
2019-04-16T05:11:23.944Z,14.58
2019-04-16T05:12:10.580Z,14.33
2019-04-16T05:12:57.267Z,14.58
2019-04-16T05:13:43.380Z,14.47
2019-04-16T05:14:29.379Z,14.40
2019-04-16T05:15:15.331Z,14.18
2019-04-16T05:16:01.896Z,13.70
2019-04-16T05:16:48.953Z,14.03
2019-04-16T05:17:35.464Z,14.63
2019-04-16T05:18:23.056Z,13.93
2019-04-16T05:19:13.789Z,14.45
2019-04-16T05:19:57.233Z,14.50
2019-04-16T05:20:46.787Z,14.28
2019-04-16T05:21:31.754Z,14.83
2019-04-16T05:22:21.573Z,14.00
2019-04-16T05:23:07.185Z,14.45
2019-04-16T05:23:57.030Z,14.28
2019-04-16T05:24:43.260Z,13.83
2019-04-16T05:25:33.039Z,14.45
2019-04-16T05:26:17.469Z,14.18
2019-04-16T05:27:05.482Z,15.50
2019-04-16T05:27:51.319Z,14.68
2019-04-16T05:28:37.333Z,14.47
2019-04-16T05:29:24.837Z,14.38
2019-04-16T05:30:23.756Z,13.62
2019-04-16T05:31:24.154Z,13.68
2019-04-16T05:32:14.058Z,13.70
2019-04-16T05:33:17.086Z,14.83
2019-04-16T05:34:17.932Z,13.62
2019-04-16T05:35:13.556Z,13.70
2019-04-16T05:36:07.508Z,14.35
2019-04-16T05:36:56.992Z,14.45
2019-04-16T05:37:43.483Z,15.05
2019-04-16T05:38:29.490Z,14.13
2019-04-16T05:39:15.405Z,14.43
2019-04-16T05:40:01.363Z,14.53
2019-04-16T05:40:47.391Z,15.25
2019-04-16T05:41:33.862Z,15.05
2019-04-16T05:42:22.457Z,14.80
2019-04-16T05:43:08.683Z,14.43
2019-04-16T05:43:54.806Z,15.30
2019-04-16T05:46:46.457Z,14.23
2019-04-16T05:47:30.948Z,14.35
2019-04-16T05:48:18.594Z,14.33
2019-04-16T05:49:05.222Z,14.68
2019-04-16T05:49:51.486Z,13.80
2019-04-16T05:50:38.120Z,13.58
2019-04-16T05:51:24.783Z,12.95
2019-04-16T05:52:11.418Z,13.80
2019-04-16T05:52:57.553Z,13.68
2019-04-16T05:53:48.066Z,13.85
2019-04-16T05:54:44.513Z,14.00
2019-04-16T05:55:49.532Z,14.15
2019-04-16T05:56:43.915Z,12.73
2019-04-16T05:57:32.789Z,12.60
2019-04-16T05:58:19.186Z,14.15
2019-04-16T05:59:05.630Z,12.53
2019-04-16T05:59:51.972Z,14.07
2019-04-16T06:00:45.748Z,13.43
2019-04-16T06:01:57.236Z,13.50
2019-04-16T06:02:42.922Z,13.53
2019-04-16T06:03:28.912Z,12.90
2019-04-16T06:04:15.238Z,14.07
2019-04-16T06:05:01.204Z,13.93
2019-04-16T06:05:47.534Z,13.13
2019-04-16T06:06:33.598Z,13.68
2019-04-16T06:07:19.534Z,13.75
2019-04-16T06:08:10.446Z,13.68
2019-04-16T06:08:56.858Z,12.95
2019-04-16T06:09:44.379Z,14.28
2019-04-16T06:10:31.219Z,13.15
2019-04-16T06:11:28.082Z,13.98
2019-04-16T06:12:05.866Z,13.13
2019-04-16T06:13:12.642Z,13.88
2019-04-16T06:14:21.479Z,12.98
2019-04-16T06:15:21.301Z,13.22
2019-04-16T06:16:18.154Z,13.45
2019-04-16T06:17:31.961Z,14.50
2019-04-16T06:18:37.970Z,13.48
2019-04-16T06:19:32.862Z,14.10
2019-04-16T06:20:39.673Z,14.20
2019-04-16T06:21:56.744Z,14.83
2019-04-16T06:23:04.818Z,13.95
2019-04-16T06:24:03.390Z,14.30
2019-04-16T06:25:10.848Z,13.60
2019-04-16T06:26:16.873Z,14.13
2019-04-16T06:27:21.505Z,13.20
2019-04-16T06:28:12.787Z,13.03
2019-04-16T06:29:10.903Z,13.20
2019-04-16T06:30:15.815Z,12.98
2019-04-16T06:31:20.218Z,14.25
2019-04-16T06:32:27.809Z,13.78
2019-04-16T06:33:19.729Z,13.32
2019-04-16T06:34:15.308Z,13.55
2019-04-16T06:35:19.883Z,13.88
2019-04-16T06:36:44.200Z,13.38
2019-04-16T06:37:36.808Z,13.00
2019-04-16T06:38:26.725Z,13.38
2019-04-16T06:39:38.427Z,13.62
2019-04-16T06:40:38.159Z,13.95
2019-04-16T06:41:47.785Z,13.53
2019-04-16T06:42:41.953Z,14.15
2019-04-16T06:43:30.691Z,13.93
2019-04-16T06:44:21.036Z,14.03
2019-04-16T06:45:37.171Z,13.50
2019-04-16T06:46:32.493Z,13.45
2019-04-16T06:47:29.394Z,13.65
2019-04-16T06:48:23.877Z,14.50
2019-04-16T06:49:28.531Z,13.35
2019-04-16T06:50:39.692Z,14.10
2019-04-16T06:51:51.326Z,13.18
2019-04-16T06:52:46.247Z,13.38
2019-04-16T06:53:47.783Z,13.58
2019-04-16T06:55:11.703Z,13.35
2019-04-16T06:56:37.364Z,13.58
2019-04-16T06:57:43.020Z,13.28
2019-04-16T06:58:58.211Z,13.50
2019-04-16T07:00:15.990Z,13.32
2019-04-16T07:01:09.003Z,12.53
2019-04-16T07:02:13.555Z,13.65
2019-04-16T07:03:18.921Z,13.45
2019-04-16T07:04:11.303Z,13.43
2019-04-16T07:05:15.270Z,12.90
2019-04-16T07:06:35.937Z,13.72
2019-04-16T07:07:40.086Z,13.40
2019-04-16T07:08:50.885Z,13.40
2019-04-16T07:09:57.710Z,12.45
2019-04-16T07:10:56.192Z,13.15
2019-04-16T07:11:53.863Z,12.90
2019-04-16T07:12:37.971Z,13.10
2019-04-16T07:13:22.682Z,14.00
2019-04-16T07:14:15.566Z,14.00
2019-04-16T07:15:06.586Z,12.70
2019-04-16T07:15:56.958Z,14.00
2019-04-16T07:16:42.075Z,14.30
2019-04-16T07:17:33.156Z,13.48
2019-04-16T07:18:20.719Z,13.10
2019-04-16T07:19:10.189Z,13.23
2019-04-16T07:19:57.988Z,11.93
2019-04-16T07:20:46.637Z,10.77
2019-04-16T07:21:39.138Z,12.17
2019-04-16T07:22:25.418Z,13.00
2019-04-16T07:23:11.878Z,13.37
2019-04-16T07:23:58.776Z,13.73
2019-04-16T07:24:45.279Z,13.20
2019-04-16T07:25:32.306Z,13.73
2019-04-16T07:26:19.521Z,14.03
2019-04-16T07:27:06.114Z,13.83
2019-04-16T07:27:58.440Z,13.77
2019-04-16T07:29:03.644Z,13.30
2019-04-16T07:29:53.343Z,13.23
2019-04-16T07:30:46.153Z,14.13
2019-04-16T07:31:43.036Z,13.37
2019-04-16T07:32:37.987Z,14.07
2019-04-16T07:33:30.356Z,13.80
2019-04-16T07:34:37.266Z,12.95
2019-04-16T07:35:43.971Z,13.47
2019-04-16T07:36:33.722Z,13.58
2019-04-16T07:37:38.513Z,12.85
2019-04-16T07:38:31.267Z,13.53
2019-04-16T07:39:30.199Z,13.60
2019-04-16T07:40:42.702Z,13.25
2019-04-16T07:41:37.324Z,12.78
2019-04-16T07:42:35.103Z,12.10
2019-04-16T07:43:50.142Z,13.30
2019-04-16T07:44:55.027Z,13.05
2019-04-16T07:45:47.899Z,13.98
2019-04-16T07:46:48.691Z,13.78
2019-04-16T07:48:12.863Z,13.62
2019-04-16T07:49:18.551Z,14.50
2019-04-16T07:50:16.011Z,14.30
2019-04-16T07:51:39.822Z,14.33
2019-04-16T07:52:42.622Z,14.13
2019-04-16T07:54:02.271Z,12.93
2019-04-16T07:55:02.345Z,13.20
2019-04-16T07:55:51.459Z,14.30
2019-04-16T07:56:39.237Z,13.95
2019-04-16T07:57:25.712Z,13.43
2019-04-16T07:58:11.823Z,13.88
2019-04-16T07:59:01.331Z,13.93
2019-04-16T07:59:47.181Z,13.53
2019-04-16T08:00:40.113Z,14.00
2019-04-16T08:01:23.223Z,13.90
2019-04-16T08:02:09.389Z,14.23
2019-04-16T08:02:57.131Z,13.75
2019-04-16T08:03:43.476Z,13.13
2019-04-16T08:04:35.037Z,13.78
2019-04-16T08:05:17.580Z,13.45
2019-04-16T08:06:03.819Z,14.30
2019-04-16T08:06:51.417Z,13.60
2019-04-16T08:07:37.826Z,14.13
2019-04-16T08:08:24.596Z,13.53
2019-04-16T08:09:11.325Z,13.98
2019-04-16T08:10:01.721Z,13.88
2019-04-16T08:10:45.496Z,14.00
2019-04-16T08:11:31.430Z,13.83
2019-04-16T08:12:30.074Z,13.55
2019-04-16T08:13:34.943Z,13.55
2019-04-16T08:14:21.163Z,13.88
2019-04-16T08:15:14.817Z,14.33
2019-04-16T08:15:57.759Z,12.95
2019-04-16T08:16:47.518Z,13.18
2019-04-16T08:17:33.971Z,13.75
2019-04-16T08:18:20.391Z,13.72
2019-04-16T08:19:06.743Z,14.75
2019-04-16T08:19:55.144Z,14.10
2019-04-16T08:20:40.643Z,14.23
2019-04-16T08:21:35.948Z,14.30
2019-04-16T08:22:21.972Z,13.88
2019-04-16T08:23:43.131Z,13.38
2019-04-16T08:24:33.125Z,13.55
2019-04-16T08:25:25.647Z,13.70
2019-04-16T08:26:13.800Z,13.20
2019-04-16T08:27:00.061Z,13.40
2019-04-16T08:27:50.538Z,13.75
2019-04-16T08:28:35.513Z,14.03
2019-04-16T08:29:21.378Z,13.15
2019-04-16T08:30:09.838Z,13.88
2019-04-16T08:30:56.348Z,13.88
2019-04-16T08:31:46.667Z,13.75
2019-04-16T08:32:33.995Z,14.25
2019-04-16T08:33:21.384Z,13.60
2019-04-16T08:34:07.766Z,13.95
2019-04-16T08:34:55.766Z,13.70
2019-04-16T08:35:42.417Z,14.07
2019-04-16T08:36:28.659Z,14.78
2019-04-16T08:37:15.206Z,13.65
2019-04-16T08:38:01.692Z,13.45
2019-04-16T08:38:47.628Z,13.98
2019-04-16T08:39:36.842Z,13.62
2019-04-16T08:40:22.886Z,14.10
2019-04-16T08:41:12.463Z,13.88
2019-04-16T08:41:57.774Z,14.10
2019-04-16T08:42:44.931Z,13.65
2019-04-16T08:43:31.405Z,13.65
2019-04-16T08:44:17.287Z,13.55
2019-04-16T08:45:08.423Z,13.88
2019-04-16T08:45:53.148Z,13.35
2019-04-16T08:46:40.175Z,13.68
2019-04-16T08:47:27.437Z,13.48
2019-04-16T08:48:18.465Z,13.45
2019-04-16T08:49:02.019Z,13.35
2019-04-16T08:49:53.645Z,13.45
2019-04-16T08:50:36.347Z,13.98
2019-04-16T08:51:30.442Z,14.43
2019-04-16T08:52:11.134Z,14.20
2019-04-16T08:52:57.517Z,14.07
2019-04-16T08:53:46.695Z,12.55
2019-04-16T08:54:32.001Z,13.68
2019-04-16T08:55:20.489Z,13.15
2019-04-16T08:56:06.325Z,13.38
2019-04-16T08:56:52.189Z,13.13
2019-04-16T08:57:38.601Z,13.10
2019-04-16T08:58:24.565Z,13.08
2019-04-16T08:59:11.273Z,14.00
2019-04-16T08:59:57.935Z,13.65
2019-04-16T09:00:46.565Z,13.30
2019-04-16T09:01:34.370Z,13.98
2019-04-16T09:02:23.597Z,14.50
2019-04-16T09:03:09.019Z,13.50
2019-04-16T09:03:54.891Z,13.13
2019-04-16T09:04:41.441Z,13.35
2019-04-16T09:05:27.543Z,13.08
2019-04-16T09:06:14.314Z,12.82
2019-04-16T09:07:11.452Z,13.40
2019-04-16T09:07:50.922Z,13.30
2019-04-16T09:08:43.363Z,13.85
2019-04-16T09:09:33.802Z,13.45
2019-04-16T09:10:23.832Z,12.75
2019-04-16T09:11:21.767Z,13.78
2019-04-16T09:12:07.937Z,14.25
2019-04-16T09:13:02.429Z,13.72
2019-04-16T09:13:44.476Z,13.72
2019-04-16T09:14:33.457Z,13.08
2019-04-16T09:15:23.332Z,14.10
2019-04-16T09:16:10.984Z,12.93
2019-04-16T09:17:22.316Z,13.10
2019-04-16T09:18:24.173Z,14.87
2019-04-16T09:19:13.335Z,13.83
2019-04-16T09:20:12.492Z,13.15
2019-04-16T09:20:58.818Z,13.50
2019-04-16T09:21:44.770Z,14.00
2019-04-16T09:22:31.351Z,12.90
2019-04-16T09:23:17.603Z,13.53
2019-04-16T09:24:20.672Z,13.93
2019-04-16T09:25:16.190Z,12.80
2019-04-16T09:26:15.543Z,13.03
2019-04-16T09:27:13.566Z,13.85
2019-04-16T09:28:25.865Z,13.53
2019-04-16T09:29:39.354Z,13.72
2019-04-16T09:31:00.832Z,14.28
2019-04-16T09:32:15.645Z,13.55
2019-04-16T09:33:06.029Z,14.40
2019-04-16T09:34:14.931Z,14.73
2019-04-16T09:35:17.916Z,13.48
2019-04-16T09:36:24.411Z,13.72
2019-04-16T09:37:22.100Z,13.25
2019-04-16T09:38:18.323Z,13.83
2019-04-16T09:39:13.269Z,13.53
2019-04-16T09:40:27.599Z,13.60
2019-04-16T09:41:39.851Z,13.43
2019-04-16T09:42:26.171Z,13.18
2019-04-16T09:43:17.584Z,13.35
2019-04-16T09:44:04.482Z,13.93
2019-04-16T09:44:50.472Z,12.98
2019-04-16T09:45:37.293Z,13.18
2019-04-16T09:46:48.792Z,12.98
2019-04-16T09:47:12.396Z,13.60
2019-04-16T09:47:58.421Z,14.45
2019-04-16T09:48:44.419Z,13.43
2019-04-16T09:49:30.326Z,12.75
2019-04-16T09:50:16.715Z,12.45
2019-04-16T09:51:02.770Z,13.70
2019-04-16T09:51:50.445Z,14.68
2019-04-16T09:52:38.706Z,13.40
2019-04-16T09:53:33.429Z,14.00
2019-04-16T09:54:13.927Z,13.75
2019-04-16T09:55:00.298Z,13.45
2019-04-16T09:55:47.622Z,13.05
2019-04-16T09:56:34.267Z,13.80
2019-04-16T09:57:20.917Z,13.83
2019-04-16T09:58:15.498Z,13.03
2019-04-16T09:59:15.849Z,13.30
2019-04-16T10:00:03.613Z,13.95
2019-04-16T10:00:57.418Z,13.38
2019-04-16T10:01:48.822Z,13.85
2019-04-16T10:02:36.195Z,12.93
2019-04-16T10:03:31.813Z,13.40
2019-04-16T10:04:20.057Z,13.13
2019-04-16T10:05:06.376Z,14.18
2019-04-16T10:05:52.522Z,13.68
2019-04-16T10:06:38.445Z,12.05
2019-04-16T10:07:25.244Z,13.03
2019-04-16T10:08:12.653Z,13.32
2019-04-16T10:08:59.769Z,13.08
2019-04-16T10:09:46.068Z,12.65
2019-04-16T10:10:32.448Z,14.00
2019-04-16T10:11:19.457Z,13.43
2019-04-16T10:12:07.899Z,13.20
2019-04-16T10:12:54.150Z,13.60
2019-04-16T10:13:40.176Z,12.50
2019-04-16T10:14:26.594Z,13.10
2019-04-16T10:15:14.012Z,12.37
2019-04-16T10:16:00.383Z,13.20
2019-04-16T10:16:46.875Z,13.60
2019-04-16T10:17:33.714Z,13.30
2019-04-16T10:18:20.130Z,13.98
2019-04-16T10:19:08.399Z,14.40
2019-04-16T10:19:54.598Z,12.98
2019-04-16T10:20:41.972Z,13.10
2019-04-16T10:21:29.178Z,13.75
2019-04-16T10:22:15.328Z,12.40
2019-04-16T10:23:03.688Z,12.63
2019-04-16T10:24:09.507Z,12.90
2019-04-16T10:25:08.135Z,13.53
2019-04-16T10:25:54.539Z,13.55
2019-04-16T10:26:40.577Z,14.03
2019-04-16T10:28:04.936Z,13.58
2019-04-16T10:28:50.739Z,13.95
2019-04-16T10:29:36.832Z,13.38
2019-04-16T10:30:30.371Z,13.38
2019-04-16T10:31:17.999Z,14.10
2019-04-16T10:32:04.225Z,14.28
2019-04-16T10:32:50.522Z,13.13
2019-04-16T10:33:36.982Z,14.15
2019-04-16T10:34:23.444Z,13.40
2019-04-16T10:35:10.215Z,12.68
2019-04-16T10:35:57.615Z,13.53
2019-04-16T10:36:44.282Z,13.15
2019-04-16T10:37:30.369Z,12.73
2019-04-16T10:38:29.230Z,12.53
2019-04-16T10:39:35.843Z,12.95
2019-04-16T10:40:33.312Z,12.98
2019-04-16T10:41:26.635Z,13.10
2019-04-16T10:42:31.384Z,13.13
2019-04-16T10:43:44.432Z,12.82
2019-04-16T10:45:03.302Z,12.05
2019-04-16T10:46:09.828Z,13.55
2019-04-16T10:47:16.656Z,12.50
2019-04-16T10:48:33.615Z,13.60
2019-04-16T10:49:39.232Z,13.60
2019-04-16T10:50:47.201Z,12.73
2019-04-16T10:51:58.715Z,12.20
2019-04-16T10:53:02.332Z,13.38
2019-04-16T10:53:56.361Z,12.35
2019-04-16T10:54:51.440Z,12.10
2019-04-16T10:56:11.136Z,12.33
2019-04-16T10:57:15.485Z,12.10
2019-04-16T10:58:33.761Z,12.88
2019-04-16T10:59:38.171Z,12.90
2019-04-16T11:00:41.139Z,12.33
2019-04-16T11:01:40.922Z,13.78